Time;durP1;ratioP1;P1;durP2;ratioP2;P2;SDS_P1;SDS_P2;PMS_P1;PMS_P2;Temp;Humidity;BMP_temperature;BMP_pressure;BME280_temperature;BME280_humidity;BME280_pressure;Samples;Min_cycle;Max_cycle;Signal;HPM_P1;HPM_P2
2023/01/23 00:01:23;;;;;;;47.22;26.08;;;-1.30;99.90;;;-2.54;100.00;102987.25;4151700;28;20037;-75
2023/01/23 00:03:24;;;;;;;39.70;24.60;;;-1.30;99.90;;;-2.53;100.00;102994.13;4151643;28;20025;-75
2023/01/23 00:05:25;;;;;;;43.17;24.83;;;-1.40;99.90;;;-2.59;100.00;102967.50;4153177;28;20030;-75
2023/01/23 00:07:26;;;;;;;40.80;24.08;;;-1.30;99.90;;;-2.63;100.00;102960.69;4159015;28;20425;-75
2023/01/23 00:09:27;;;;;;;40.75;22.23;;;-1.40;99.90;;;-2.60;100.00;102976.16;4153088;28;20021;-75
2023/01/23 00:11:29;;;;;;;36.42;20.55;;;-1.40;99.90;;;-2.53;100.00;102977.78;4152834;28;20088;-75
2023/01/23 00:13:30;;;;;;;36.72;21.50;;;-1.40;99.90;;;-2.48;100.00;102976.00;4151610;28;20037;-75
2023/01/23 00:15:32;;;;;;;40.22;22.30;;;-1.30;99.90;;;-2.39;100.00;102981.06;4152307;28;20063;-75
2023/01/23 00:17:32;;;;;;;38.95;21.10;;;-1.20;99.90;;;-2.24;100.00;102989.47;4157431;28;20053;-75
2023/01/23 00:19:33;;;;;;;34.90;20.20;;;-1.20;99.90;;;-2.19;100.00;102983.38;4152778;28;20076;-75
2023/01/23 00:21:34;;;;;;;40.85;22.23;;;-1.10;99.90;;;-2.17;100.00;102989.38;4152637;28;20084;-75
2023/01/23 00:23:35;;;;;;;38.55;20.48;;;-1.00;99.90;;;-2.18;100.00;102982.53;4151247;28;20026;-75
2023/01/23 00:25:36;;;;;;;35.30;20.17;;;-1.00;99.90;;;-2.14;100.00;102989.34;4152448;28;20505;-75
2023/01/23 00:27:37;;;;;;;32.65;20.33;;;-1.00;99.90;;;-2.14;100.00;102991.94;4154115;28;20030;-75
2023/01/23 00:29:38;;;;;;;34.10;19.58;;;-1.00;99.90;;;-2.08;100.00;102997.00;4152522;28;20104;-75
2023/01/23 00:31:39;;;;;;;36.60;20.38;;;-1.00;99.90;;;-2.05;100.00;102995.25;4151205;28;20525;-75
2023/01/23 00:33:42;;;;;;;30.52;19.40;;;-0.90;99.90;;;-2.03;100.00;102979.72;4152488;28;20037;-75
2023/01/23 00:35:42;;;;;;;36.22;19.73;;;-0.90;99.90;;;-1.93;100.00;102989.06;4151346;28;20052;-75
2023/01/23 00:37:43;;;;;;;35.20;20.05;;;-0.80;99.90;;;-1.96;100.00;102987.38;4152438;28;20038;-75
2023/01/23 00:39:44;;;;;;;29.88;17.90;;;-0.80;99.90;;;-1.98;100.00;102988.28;4151168;28;20037;-75
2023/01/23 00:41:47;;;;;;;32.63;19.52;;;-0.80;99.90;;;-1.99;100.00;102979.66;4151288;28;20109;-75
2023/01/23 00:43:50;;;;;;;34.88;19.05;;;-0.80;99.90;;;-2.00;100.00;102975.34;4151294;28;20119;-75
2023/01/23 00:45:51;;;;;;;35.08;20.25;;;-0.90;99.90;;;-2.03;100.00;102969.38;4152352;28;20104;-75
2023/01/23 00:47:52;;;;;;;33.80;19.88;;;-0.90;99.90;;;-2.06;100.00;102970.25;4161762;28;20049;-75
2023/01/23 00:49:54;;;;;;;42.22;20.58;;;-0.90;99.90;;;-2.08;100.00;102964.25;4151129;28;20022;-75
2023/01/23 00:51:55;;;;;;;32.88;19.33;;;-0.90;99.90;;;-2.03;100.00;102965.03;4152356;28;20022;-75
2023/01/23 00:53:56;;;;;;;32.97;19.42;;;-0.80;99.90;;;-2.00;100.00;102970.16;4152307;28;20034;-75
2023/01/23 00:55:57;;;;;;;33.08;19.73;;;-0.80;99.90;;;-2.02;100.00;102971.06;4153341;28;20022;-75
2023/01/23 00:57:58;;;;;;;31.92;18.27;;;-0.90;99.90;;;-2.06;100.00;102969.44;4151752;28;20559;-75
2023/01/23 00:59:59;;;;;;;29.75;17.85;;;-0.90;99.90;;;-2.06;100.00;102969.44;4151182;28;20033;-75
2023/01/23 01:02:00;;;;;;;32.22;18.35;;;-0.90;99.90;;;-2.04;100.00;102971.13;4150816;28;20509;-75
2023/01/23 01:04:01;;;;;;;34.60;19.33;;;-0.90;99.90;;;-2.04;100.00;102976.28;4152161;28;20022;-75
2023/01/23 01:06:03;;;;;;;33.90;18.17;;;-0.90;99.90;;;-2.07;100.00;102972.88;4154409;28;20029;-75
2023/01/23 01:08:04;;;;;;;32.38;20.20;;;-0.90;99.90;;;-2.10;100.00;102968.59;4160727;28;20513;-75
2023/01/23 01:10:06;;;;;;;31.55;19.23;;;-1.00;99.90;;;-2.15;100.00;102964.38;4151062;28;20072;-75
2023/01/23 01:12:07;;;;;;;35.45;18.95;;;-1.00;99.90;;;-2.16;100.00;102973.00;4150850;28;20096;-75
2023/01/23 01:14:08;;;;;;;30.75;17.65;;;-1.00;99.90;;;-2.23;100.00;102972.22;4134748;28;20034;-75
2023/01/23 01:16:10;;;;;;;29.67;16.95;;;-1.10;99.90;;;-2.27;100.00;102965.41;4154046;28;20037;-75
2023/01/23 01:18:11;;;;;;;31.05;18.58;;;-1.10;99.90;;;-2.21;100.00;102987.72;4140467;28;20035;-75
2023/01/23 01:20:13;;;;;;;35.03;19.95;;;-1.10;99.90;;;-2.27;100.00;102963.66;4152084;28;20524;-75
2023/01/23 01:22:14;;;;;;;30.67;17.55;;;-1.10;99.90;;;-2.30;100.00;102971.44;4150689;28;20101;-75
2023/01/23 01:24:15;;;;;;;33.45;20.15;;;-1.10;99.90;;;-2.29;100.00;102978.34;4154445;28;20486;-75
2023/01/23 01:26:17;;;;;;;29.33;18.75;;;-1.10;99.90;;;-2.29;100.00;102978.34;4144693;28;20052;-75
2023/01/23 01:28:18;;;;;;;30.52;17.85;;;-1.10;99.90;;;-2.31;100.00;102976.66;4153813;28;20046;-75
2023/01/23 01:30:19;;;;;;;30.42;19.42;;;-1.20;99.90;;;-2.31;100.00;102969.75;4134623;28;20034;-75
2023/01/23 01:32:20;;;;;;;35.53;19.38;;;-1.10;99.90;;;-2.29;100.00;102972.31;4150591;28;20033;-75
2023/01/23 01:34:20;;;;;;;30.95;18.40;;;-1.20;99.90;;;-2.28;100.00;102966.28;4151905;28;20033;-75
2023/01/23 01:36:23;;;;;;;36.88;19.08;;;-1.20;99.90;;;-2.32;100.00;102956.84;4154943;28;20025;-75
2023/01/23 01:38:24;;;;;;;33.33;18.05;;;-1.10;99.90;;;-2.33;100.00;102958.56;4150828;28;20042;-75
2023/01/23 01:40:32;;;;;;;36.75;19.63;;;-1.10;99.90;;;-2.36;100.00;102958.59;4150972;28;20034;-75
2023/01/23 01:42:59;;;;;;;32.35;19.88;;;-1.20;99.90;;;-2.35;100.00;102964.63;4150888;28;20057;-75
2023/01/23 01:45:01;;;;;;;31.00;18.25;;;-1.20;99.90;;;-2.39;100.00;102961.22;4151128;28;20026;-75
2023/01/23 01:47:03;;;;;;;34.03;19.30;;;-1.20;99.90;;;-2.29;100.00;102967.13;4153155;28;20018;-75
2023/01/23 01:49:29;;;;;;;31.10;17.75;;;-1.10;99.90;;;-2.28;100.00;102961.97;4134416;28;20030;-75
2023/01/23 01:51:55;;;;;;;33.80;18.38;;;-1.10;99.90;;;-2.24;100.00;102971.38;4150833;28;20041;-75
2023/01/23 01:54:12;;;;;;;32.38;17.85;;;-1.10;99.90;;;-2.25;100.00;102973.97;4150574;28;20026;-75
2023/01/23 01:56:15;;;;;;;31.30;16.70;;;-1.10;99.90;;;-2.30;100.00;102957.69;4151649;28;20030;-75
2023/01/23 01:58:16;;;;;;;26.25;16.73;;;-1.10;99.90;;;-2.30;100.00;102968.84;4150760;28;20143;-75
2023/01/23 02:00:19;;;;;;;33.55;17.83;;;-1.10;99.90;;;-2.32;100.00;102962.88;4151066;28;20026;-75
2023/01/23 02:02:55;;;;;;;28.50;17.02;;;-1.10;99.90;;;-2.25;100.00;102969.69;4153310;28;20026;-75
2023/01/23 02:05:06;;;;;;;28.52;17.60;;;-1.10;99.90;;;-2.25;100.00;102968.81;4143041;28;20433;-75
2023/01/23 02:07:17;;;;;;;26.25;15.93;;;-1.10;99.90;;;-2.29;100.00;102961.97;4164803;28;20556;-75
2023/01/23 02:09:25;;;;;;;28.65;17.42;;;-1.10;99.90;;;-2.29;100.00;102960.25;4125069;28;20030;-75
2023/01/23 02:11:27;;;;;;;31.95;18.17;;;-1.10;99.90;;;-2.28;100.00;102961.09;4153446;28;20120;-75
2023/01/23 02:13:35;;;;;;;31.52;18.38;;;-1.10;99.90;;;-2.24;100.00;102967.94;4153392;28;20034;-75
2023/01/23 02:15:37;;;;;;;34.67;17.67;;;-1.10;99.90;;;-2.29;100.00;102956.78;4154437;28;20044;-75
2023/01/23 02:17:38;;;;;;;28.88;18.05;;;-1.10;99.90;;;-2.26;100.00;102967.09;4161725;28;20034;-75
2023/01/23 02:19:50;;;;;;;31.35;17.65;;;-1.20;99.90;;;-2.25;100.00;102969.69;4154745;28;20041;-75
2023/01/23 02:22:25;;;;;;;32.78;18.15;;;-1.20;99.90;;;-2.32;100.00;102962.00;4153022;28;20432;-75
2023/01/23 02:24:39;;;;;;;28.00;16.48;;;-1.10;99.90;;;-2.36;100.00;102961.19;4154321;28;20033;-75
2023/01/23 02:26:44;;;;;;;26.05;16.60;;;-1.20;99.90;;;-2.36;100.00;102966.34;4159512;28;20522;-75
2023/01/23 02:28:50;;;;;;;29.52;16.05;;;-1.20;99.90;;;-2.45;100.00;102956.13;4141833;28;20030;-76
2023/01/23 02:30:51;;;;;;;28.13;16.85;;;-1.20;99.90;;;-2.48;100.00;102965.69;4137111;28;20034;-75
2023/01/23 02:32:52;;;;;;;25.02;15.35;;;-1.20;99.90;;;-2.54;100.00;102960.59;4154143;28;20021;-75
2023/01/23 02:34:57;;;;;;;31.10;16.67;;;-1.30;99.90;;;-2.61;100.00;102959.78;4154114;28;20508;-76
2023/01/23 02:36:59;;;;;;;33.28;19.55;;;-1.30;99.90;;;-2.55;100.00;102958.84;4157067;28;20493;-75
2023/01/23 02:39:14;;;;;;;36.40;20.30;;;-1.40;99.90;;;-2.58;100.00;102957.16;4153057;28;20040;-76
2023/01/23 02:41:20;;;;;;;36.33;19.65;;;-1.40;99.90;;;-2.45;100.00;102970.81;4136898;28;20026;-75
2023/01/23 02:43:26;;;;;;;33.38;20.02;;;-1.40;99.90;;;-2.42;100.00;102958.69;4153069;28;20053;-75
2023/01/23 02:45:27;;;;;;;33.22;19.70;;;-1.30;99.90;;;-2.32;100.00;102967.16;4153116;28;20026;-75
2023/01/23 02:47:28;;;;;;;39.63;20.15;;;-1.20;99.90;;;-2.34;100.00;102969.78;4155686;28;20041;-75
2023/01/23 02:49:30;;;;;;;34.08;20.42;;;-1.20;99.90;;;-2.29;100.00;102977.47;4152745;28;20088;-75
2023/01/23 02:51:31;;;;;;;31.02;17.95;;;-1.20;99.90;;;-2.33;100.00;102975.81;4136336;28;20110;-75
2023/01/23 02:53:32;;;;;;;35.95;20.10;;;-1.20;99.90;;;-2.32;100.00;102982.69;4152448;28;20029;-75
2023/01/23 02:55:33;;;;;;;32.55;19.42;;;-1.20;99.90;;;-2.32;100.00;102983.53;4153970;28;20030;-75
2023/01/23 02:57:34;;;;;;;32.38;17.38;;;-1.20;99.90;;;-2.30;100.00;102994.69;4152561;28;20060;-75
2023/01/23 03:01:56;;;;;;;32.33;18.25;;;-1.20;99.90;;;-2.33;100.00;102991.31;4153605;28;20045;-75
2023/01/23 03:04:02;;;;;;;34.35;20.42;;;-1.20;99.90;;;-2.30;100.00;102989.53;4152757;28;20026;-75
2023/01/23 03:06:04;;;;;;;33.72;19.27;;;-1.10;99.90;;;-2.21;100.00;102990.31;4153195;28;20072;-75
2023/01/23 03:08:05;;;;;;;37.15;20.25;;;-1.10;99.90;;;-2.14;100.00;102997.09;4162136;28;20028;-75
2023/01/23 03:10:07;;;;;;;35.08;20.23;;;-1.10;99.90;;;-2.10;100.00;102988.44;4152383;28;20501;-75
2023/01/23 03:12:08;;;;;;;34.97;19.98;;;-1.00;99.90;;;-2.06;100.00;102993.53;4152081;28;20037;-75
2023/01/23 03:14:15;;;;;;;36.28;19.50;;;-0.90;99.90;;;-2.07;100.00;102999.59;4152511;28;20113;-75
2023/01/23 03:16:16;;;;;;;34.53;19.13;;;-0.90;99.90;;;-2.10;100.00;102993.59;4152785;28;20033;-75
2023/01/23 03:18:16;;;;;;;32.55;19.20;;;-0.90;99.90;;;-1.99;100.00;102999.47;4152233;28;20076;-75
2023/01/23 03:20:18;;;;;;;35.35;18.98;;;-0.90;99.90;;;-2.02;100.00;102994.34;4152449;28;20030;-75
2023/01/23 03:22:19;;;;;;;35.60;19.92;;;-0.80;99.90;;;-2.00;100.00;102992.63;4151970;28;20100;-75
2023/01/23 03:24:20;;;;;;;34.33;20.73;;;-0.80;99.90;;;-2.04;100.00;102994.38;4152867;28;20030;-75
2023/01/23 03:26:21;;;;;;;32.53;19.20;;;-0.80;99.90;;;-2.13;100.00;102972.97;4154968;28;20110;-75
2023/01/23 03:30:41;;;;;;;33.55;19.17;;;-0.80;99.90;;;-2.12;100.00;102985.84;4153356;28;20087;-75
2023/01/23 03:32:44;;;;;;;35.28;19.70;;;-0.90;99.90;;;-2.14;100.00;102986.75;4153168;28;20490;-75
2023/01/23 03:34:45;;;;;;;36.50;21.90;;;-0.90;99.90;;;-2.20;100.00;102971.31;4154597;28;20055;-75
2023/01/23 03:36:46;;;;;;;34.90;19.02;;;-0.90;99.90;;;-2.24;100.00;102975.72;4154955;28;20033;-76
2023/01/23 03:41:25;;;;;;;34.78;19.25;;;-1.10;99.90;;;-2.33;100.00;102968.91;4153227;28;20081;-75
2023/01/23 03:43:31;;;;;;;34.85;18.65;;;-1.10;99.90;;;-2.35;100.00;102962.03;4153260;28;20033;-75
2023/01/23 03:45:32;;;;;;;34.63;19.40;;;-1.10;99.90;;;-2.31;100.00;102967.16;4152092;28;20026;-75
2023/01/23 03:47:33;;;;;;;35.72;18.55;;;-1.10;99.90;;;-2.37;100.00;102958.63;4153540;28;20029;-75
2023/01/23 03:49:34;;;;;;;30.38;18.77;;;-1.10;99.90;;;-2.29;100.00;102967.13;4151817;28;20026;-75
2023/01/23 03:51:35;;;;;;;36.45;19.05;;;-1.10;99.90;;;-2.31;100.00;102964.59;4153235;28;20030;-75
2023/01/23 03:53:36;;;;;;;35.00;19.30;;;-1.10;99.90;;;-2.35;100.00;102969.78;4152034;28;20410;-75
2023/01/23 03:55:37;;;;;;;27.33;17.58;;;-1.10;99.90;;;-2.41;100.00;102965.56;4153047;28;20042;-75
2023/01/23 03:57:38;;;;;;;32.70;17.88;;;-1.20;99.90;;;-2.48;100.00;102965.69;4163887;28;20040;-75
2023/01/23 03:59:39;;;;;;;29.38;17.38;;;-1.20;99.90;;;-2.54;100.00;102964.00;4152983;28;20029;-75
2023/01/23 04:01:40;;;;;;;30.40;18.60;;;-1.30;99.90;;;-2.55;100.00;102964.88;4152852;28;20030;-75
2023/01/23 04:03:41;;;;;;;33.80;18.95;;;-1.40;99.90;;;-2.52;100.00;102970.03;4152712;28;20057;-75
2023/01/23 04:05:42;;;;;;;31.92;18.60;;;-1.30;99.90;;;-2.52;100.00;102964.84;4151500;28;20022;-75
2023/01/23 04:07:43;;;;;;;33.95;19.00;;;-1.30;99.90;;;-2.61;100.00;102954.63;4162175;28;20084;-75
2023/01/23 04:09:43;;;;;;;32.58;19.50;;;-1.40;99.90;;;-2.63;100.00;102955.53;4151633;28;20022;-75
2023/01/23 04:11:44;;;;;;;35.15;19.15;;;-1.40;99.90;;;-2.63;100.00;102960.69;4151658;28;20072;-75
2023/01/23 04:13:45;;;;;;;34.92;21.20;;;-1.40;99.90;;;-2.68;100.00;102947.81;4151409;28;20080;-75
2023/01/23 04:15:46;;;;;;;34.90;20.50;;;-1.40;99.90;;;-2.63;100.00;102947.78;4151643;28;20482;-75
2023/01/23 04:17:47;;;;;;;34.65;19.98;;;-1.40;99.90;;;-2.54;100.00;102951.06;4159432;28;20034;-75
2023/01/23 04:19:48;;;;;;;33.20;19.45;;;-1.40;99.90;;;-2.46;100.00;102957.03;4152887;28;20061;-76
2023/01/23 04:21:49;;;;;;;28.60;18.38;;;-1.30;99.90;;;-2.44;100.00;102955.25;4152483;28;20046;-75
2023/01/23 04:23:50;;;;;;;29.92;17.52;;;-1.30;99.90;;;-2.44;100.00;102955.25;4150938;28;20489;-75
2023/01/23 04:25:51;;;;;;;34.15;17.65;;;-1.30;99.90;;;-2.36;100.00;102961.19;4153320;28;20053;-75
2023/01/23 04:27:52;;;;;;;32.70;18.75;;;-1.30;99.90;;;-2.28;100.00;102959.38;4156225;28;20535;-75
2023/01/23 04:29:53;;;;;;;31.50;18.40;;;-1.20;99.90;;;-2.32;100.00;102956.84;4151424;28;20049;-75
2023/01/23 04:31:54;;;;;;;30.00;17.65;;;-1.20;99.90;;;-2.33;100.00;102961.16;4151047;28;20401;-75
2023/01/23 04:33:55;;;;;;;30.60;18.48;;;-1.20;99.90;;;-2.36;100.00;102961.19;4151408;28;20030;-75
2023/01/23 04:36:03;;;;;;;33.03;18.88;;;-1.20;99.90;;;-2.32;100.00;102973.19;4134995;28;20062;-75
2023/01/23 04:38:04;;;;;;;36.67;17.90;;;-1.20;99.90;;;-2.26;100.00;102975.72;4137676;28;20121;-75
2023/01/23 04:40:05;;;;;;;31.10;17.67;;;-1.20;99.90;;;-2.34;100.00;102974.97;4151173;28;20085;-76
2023/01/23 04:42:06;;;;;;;28.50;16.73;;;-1.20;99.90;;;-2.42;100.00;102976.75;4134817;28;20128;-75
2023/01/23 04:44:40;;;;;;;30.48;17.52;;;-1.20;99.90;;;-2.45;100.00;102969.06;4152134;28;20148;-75
2023/01/23 04:46:34;;;;;;;33.05;18.75;;;-1.30;99.90;;;-2.31;100.00;102971.47;4151537;28;20044;-75
2023/01/23 04:48:35;;;;;;;32.63;18.52;;;-1.20;99.90;;;-2.21;100.00;102964.47;4151102;28;20532;-75
2023/01/23 04:50:36;;;;;;;29.20;17.58;;;-1.10;99.90;;;-2.16;100.00;102967.84;4151431;28;20068;-75
2023/01/23 04:52:38;;;;;;;35.00;17.08;;;-1.10;99.90;;;-2.20;100.00;102958.41;4152346;28;20052;-75
2023/01/23 04:54:39;;;;;;;32.28;18.55;;;-1.00;99.90;;;-2.12;100.00;102959.16;4134673;28;20046;-75
2023/01/23 04:56:40;;;;;;;32.95;18.02;;;-1.00;99.90;;;-2.02;100.00;102961.59;4156116;28;20097;-75
2023/01/23 04:58:40;;;;;;;29.00;17.88;;;-0.90;99.90;;;-2.03;100.00;102952.13;4159747;28;20494;-75
2023/01/23 05:00:41;;;;;;;29.80;16.98;;;-0.90;99.90;;;-2.00;100.00;102961.59;4150833;28;20057;-75
2023/01/23 05:02:45;;;;;;;31.65;18.23;;;-0.80;99.90;;;-2.00;100.00;102966.75;4150711;28;20476;-75
2023/01/23 05:04:46;;;;;;;33.63;17.38;;;-0.80;99.90;;;-2.00;100.00;102964.16;4152473;28;20034;-76
2023/01/23 05:06:47;;;;;;;29.65;17.20;;;-0.90;99.90;;;-1.98;100.00;102958.09;4156933;28;20100;-75
2023/01/23 05:08:48;;;;;;;28.63;18.45;;;-0.80;99.90;;;-1.95;100.00;102963.22;4154499;28;20026;-75
2023/01/23 05:10:49;;;;;;;32.95;16.80;;;-0.90;99.90;;;-1.99;100.00;102961.53;4152211;28;20062;-75
2023/01/23 05:12:50;;;;;;;32.58;17.60;;;-0.90;99.90;;;-1.96;100.00;102965.81;4134727;28;20414;-75
2023/01/23 05:14:51;;;;;;;33.38;18.75;;;-0.80;99.90;;;-1.97;100.00;102966.72;4152202;28;20033;-76
2023/01/23 05:16:51;;;;;;;30.13;17.02;;;-0.80;99.90;;;-1.96;100.00;102961.50;4150692;28;20025;-75
2023/01/23 05:18:52;;;;;;;33.45;18.52;;;-0.80;99.90;;;-1.83;100.00;102969.94;4150857;28;20512;-75
2023/01/23 05:20:53;;;;;;;29.98;18.90;;;-0.80;99.90;;;-1.76;100.00;102974.13;4150806;28;20109;-75
2023/01/23 05:22:55;;;;;;;36.70;18.55;;;-0.70;99.90;;;-1.66;100.00;102970.53;4152233;28;20034;-76
2023/01/23 05:24:57;;;;;;;29.15;17.73;;;-0.60;99.90;;;-1.59;100.00;102981.66;4153081;28;20053;-75
2023/01/23 05:26:58;;;;;;;27.48;17.02;;;-0.50;99.90;;;-1.65;100.00;102958.47;4155831;28;20436;-76
2023/01/23 05:28:59;;;;;;;31.15;17.98;;;-0.50;99.90;;;-1.61;100.00;102962.72;4150964;28;20040;-76
2023/01/23 05:31:00;;;;;;;29.48;16.70;;;-0.50;99.90;;;-1.63;100.00;102961.88;4152015;28;20030;-75
2023/01/23 05:33:01;;;;;;;33.42;18.60;;;-0.50;99.90;;;-1.67;100.00;102965.41;4163203;28;20527;-75
2023/01/23 05:35:02;;;;;;;26.70;16.67;;;-0.50;99.90;;;-1.72;100.00;102971.50;4154284;28;20026;-75
2023/01/23 05:37:03;;;;;;;28.15;17.05;;;-0.50;99.90;;;-1.79;100.00;102961.25;4157082;28;20140;-75
2023/01/23 05:39:04;;;;;;;28.00;17.45;;;-0.60;99.90;;;-1.81;100.00;102968.19;4154236;28;20432;-75
2023/01/23 05:41:05;;;;;;;27.63;16.40;;;-0.60;99.90;;;-1.85;100.00;102969.94;4155195;28;20101;-75
2023/01/23 05:43:06;;;;;;;28.33;16.08;;;-0.70;99.90;;;-1.87;100.00;102973.44;4155031;28;20022;-75
2023/01/23 05:45:07;;;;;;;33.22;16.73;;;-0.70;99.90;;;-1.98;100.00;102963.28;4153978;28;20026;-75
2023/01/23 05:47:08;;;;;;;27.63;18.38;;;-0.70;99.90;;;-1.96;100.00;102958.91;4161912;28;20022;-75
2023/01/23 05:49:09;;;;;;;30.00;17.30;;;-0.80;99.90;;;-1.88;100.00;102969.16;4160677;28;20082;-75
2023/01/23 05:51:10;;;;;;;27.60;17.10;;;-0.80;99.90;;;-1.90;100.00;102968.31;4154863;28;20029;-75
2023/01/23 05:53:11;;;;;;;22.80;15.57;;;-0.80;99.90;;;-1.91;100.00;102964.88;4154965;28;20057;-75
2023/01/23 05:55:12;;;;;;;30.33;17.45;;;-0.80;99.90;;;-1.92;100.00;102968.34;4153661;28;20030;-75
2023/01/23 05:57:13;;;;;;;28.67;17.55;;;-0.80;99.90;;;-1.94;100.00;102969.25;4161220;28;20049;-75
2023/01/23 05:59:14;;;;;;;29.58;17.33;;;-0.80;99.90;;;-1.97;100.00;102962.38;4157729;28;20029;-76
2023/01/23 06:01:15;;;;;;;29.23;16.60;;;-0.80;99.90;;;-1.94;100.00;102967.50;4153598;28;20026;-75
2023/01/23 06:03:16;;;;;;;29.80;17.30;;;-0.80;99.90;;;-1.92;100.00;102972.66;4154657;28;20498;-76
2023/01/23 06:05:17;;;;;;;27.13;16.08;;;-0.80;99.90;;;-1.92;100.00;102962.31;4154714;28;20030;-75
2023/01/23 06:07:19;;;;;;;28.27;16.40;;;-0.80;99.90;;;-1.92;100.00;102959.72;4160752;28;20026;-76
2023/01/23 06:09:20;;;;;;;31.15;16.88;;;-0.80;99.90;;;-1.87;100.00;102965.69;4153723;28;20032;-75
2023/01/23 06:11:21;;;;;;;31.27;17.52;;;-0.80;99.90;;;-1.90;100.00;102955.38;4154659;28;20029;-75
2023/01/23 06:13:21;;;;;;;29.70;16.38;;;-0.80;99.90;;;-1.87;100.00;102966.53;4154725;28;20051;-75
2023/01/23 06:15:22;;;;;;;30.77;17.27;;;-0.70;99.90;;;-1.79;100.00;102966.41;4154430;28;20038;-75
2023/01/23 06:17:23;;;;;;;30.00;16.67;;;-0.70;99.90;;;-1.86;100.00;102964.81;4158055;28;20470;-75
2023/01/23 06:19:24;;;;;;;30.52;16.55;;;-0.70;99.90;;;-1.80;100.00;102972.50;4154538;28;20040;-75
2023/01/23 06:21:25;;;;;;;30.45;16.17;;;-0.70;99.90;;;-1.88;100.00;102961.41;4154001;28;20081;-75
2023/01/23 06:23:27;;;;;;;27.70;16.77;;;-0.70;99.90;;;-1.86;100.00;102967.41;4154412;28;20033;-75
2023/01/23 06:25:28;;;;;;;28.58;16.70;;;-0.70;99.90;;;-1.88;100.00;102974.34;4154085;28;20030;-75
2023/01/23 06:27:28;;;;;;;25.88;15.80;;;-0.70;99.90;;;-1.90;100.00;102970.91;4156036;28;20049;-76
2023/01/23 06:29:29;;;;;;;29.52;17.50;;;-0.70;99.90;;;-1.87;100.00;102970.84;4153147;28;20037;-75
2023/01/23 06:31:31;;;;;;;29.38;16.80;;;-0.70;99.90;;;-1.88;100.00;102974.34;4154387;28;20030;-75
2023/01/23 06:33:32;;;;;;;28.92;16.85;;;-0.70;99.90;;;-1.90;100.00;102971.75;4152834;28;20114;-74
2023/01/23 06:35:33;;;;;;;28.85;17.17;;;-0.70;99.90;;;-1.86;100.00;102976.03;4154352;28;20601;-75
2023/01/23 06:37:33;;;;;;;28.55;17.05;;;-0.80;99.90;;;-1.88;100.00;102979.50;4154936;28;20030;-76
2023/01/23 06:39:34;;;;;;;28.13;17.02;;;-0.70;99.90;;;-1.92;100.00;102980.41;4154138;28;20044;-76
2023/01/23 06:41:35;;;;;;;29.33;16.25;;;-0.70;99.90;;;-1.92;100.00;102981.28;4153902;28;20041;-76
2023/01/23 06:43:36;;;;;;;28.00;16.48;;;-0.80;99.90;;;-1.92;100.00;102972.66;4152789;28;20033;-76
2023/01/23 06:45:37;;;;;;;28.92;16.33;;;-0.80;99.90;;;-1.98;100.00;102959.81;4169178;28;20025;-76
2023/01/23 06:47:38;;;;;;;27.67;17.88;;;-0.80;99.90;;;-2.00;100.00;102970.16;4162183;28;20551;-76
2023/01/23 06:49:39;;;;;;;32.78;18.10;;;-0.80;99.90;;;-1.97;100.00;102964.97;4154059;28;20409;-76
2023/01/23 06:51:40;;;;;;;34.13;18.08;;;-0.80;99.90;;;-1.95;100.00;102972.72;4153795;28;20026;-77
2023/01/23 06:53:41;;;;;;;26.60;17.30;;;-0.80;99.90;;;-1.91;100.00;102979.56;4153686;28;20396;-76
2023/01/23 06:55:42;;;;;;;27.35;16.05;;;-0.80;99.90;;;-1.91;100.00;102969.22;4152736;28;20034;-76
2023/01/23 06:57:43;;;;;;;27.60;17.05;;;-0.80;99.90;;;-1.95;100.00;102962.38;4153848;28;20050;-76
2023/01/23 06:59:44;;;;;;;28.13;15.65;;;-0.70;99.90;;;-1.88;100.00;102964.00;4153953;28;20029;-76
2023/01/23 07:01:45;;;;;;;26.42;15.57;;;-0.70;99.90;;;-1.97;100.00;102952.03;4152414;28;20060;-76
2023/01/23 07:03:46;;;;;;;28.17;15.82;;;-0.70;99.90;;;-1.92;100.00;102959.72;4152623;28;20030;-76
2023/01/23 07:05:47;;;;;;;30.33;17.52;;;-0.70;99.90;;;-1.91;100.00;102949.34;4153669;28;20041;-76
2023/01/23 07:07:50;;;;;;;28.88;17.23;;;-0.60;99.90;;;-1.94;100.00;102949.41;4165675;28;20512;-76
2023/01/23 07:09:51;;;;;;;27.17;17.38;;;-0.60;99.90;;;-1.79;100.00;102969.00;4152567;28;20116;-75
2023/01/23 07:11:52;;;;;;;30.70;17.05;;;-0.60;99.90;;;-1.75;100.00;102976.72;4152484;28;20030;-76
2023/01/23 07:13:53;;;;;;;28.08;17.73;;;-0.60;99.90;;;-1.72;100.00;102983.56;4136065;28;20065;-76
2023/01/23 07:15:54;;;;;;;27.58;16.90;;;-0.50;99.90;;;-1.68;100.00;102982.66;4154545;28;20516;-76
2023/01/23 07:17:55;;;;;;;28.00;15.95;;;-0.50;99.90;;;-1.75;100.00;102984.47;4144844;28;20466;-75
2023/01/23 07:19:56;;;;;;;28.08;16.58;;;-0.50;99.90;;;-1.66;100.00;102991.22;4152315;28;20069;-76
2023/01/23 07:21:57;;;;;;;25.33;15.38;;;-0.50;99.90;;;-1.67;100.00;102990.38;4153159;28;20080;-76
2023/01/23 07:23:58;;;;;;;27.33;16.05;;;-0.50;99.90;;;-1.61;100.00;102994.59;4152446;28;20018;-76
2023/01/23 07:26:08;;;;;;;25.58;16.48;;;-0.50;99.90;;;-1.57;100.00;102992.81;4164195;28;20108;-76
2023/01/23 07:28:09;;;;;;;28.80;17.10;;;-0.40;99.90;;;-1.63;100.00;102980.84;4157259;28;20026;-76
2023/01/23 07:30:11;;;;;;;31.45;17.25;;;-0.40;99.90;;;-1.53;100.00;102997.09;4152169;28;20030;-76
2023/01/23 07:32:12;;;;;;;26.77;15.68;;;-0.40;99.90;;;-1.61;100.00;102975.66;4153288;28;20065;-75
2023/01/23 07:34:14;;;;;;;25.98;16.30;;;-0.40;99.90;;;-1.56;100.00;102994.53;4136790;28;20093;-75
2023/01/23 07:36:17;;;;;;;28.15;16.23;;;-0.40;99.90;;;-1.46;100.00;102996.09;4157286;28;20017;-76
2023/01/23 07:38:18;;;;;;;28.58;16.17;;;-0.30;99.90;;;-1.45;100.00;102988.31;4153173;28;20121;-75
2023/01/23 07:40:19;;;;;;;27.67;16.13;;;-0.30;99.90;;;-1.36;100.00;102995.06;4152073;28;20064;-76
2023/01/23 07:42:20;;;;;;;26.15;15.90;;;-0.20;99.90;;;-1.39;100.00;102979.59;4151851;28;20038;-76
2023/01/23 07:44:21;;;;;;;23.42;15.98;;;-0.20;99.90;;;-1.29;100.00;102991.50;4153129;28;20037;-75
2023/01/23 07:46:24;;;;;;;29.60;17.00;;;-0.20;99.90;;;-1.30;100.00;102982.88;4154272;28;20053;-75
2023/01/23 07:48:25;;;;;;;26.48;15.88;;;-0.10;99.90;;;-1.20;100.00;103002.56;4135811;28;20026;-75
2023/01/23 07:50:26;;;;;;;23.23;15.05;;;0.00;99.90;;;-1.16;100.00;102995.59;4167618;28;20067;-75
2023/01/23 07:52:27;;;;;;;26.65;16.02;;;0.00;99.90;;;-1.12;100.00;102989.47;4152528;28;20025;-76
2023/01/23 07:54:28;;;;;;;23.88;16.13;;;0.10;99.90;;;-1.11;100.00;102992.03;4151232;28;20045;-76
2023/01/23 07:56:29;;;;;;;26.08;16.52;;;0.10;99.90;;;-1.07;100.00;102989.38;4151571;28;20034;-76
2023/01/23 07:58:30;;;;;;;27.85;15.60;;;0.20;99.90;;;-1.05;100.00;102982.47;4150937;28;20037;-76
2023/01/23 08:00:31;;;;;;;26.40;15.35;;;0.20;99.90;;;-0.94;100.00;102983.13;4151764;28;20080;-76
2023/01/23 08:02:32;;;;;;;21.95;14.55;;;0.20;99.90;;;-0.86;100.00;102996.78;4134961;28;20128;-76
2023/01/23 08:04:33;;;;;;;24.02;15.10;;;0.30;99.90;;;-0.76;100.00;103001.78;4151800;28;20069;-76
2023/01/23 08:06:35;;;;;;;24.15;14.73;;;0.40;99.90;;;-0.72;100.00;102994.81;4156876;28;20036;-76
2023/01/23 08:08:36;;;;;;;24.88;14.70;;;0.50;99.90;;;-0.75;100.00;102980.19;4157995;28;20037;-76
2023/01/23 08:10:37;;;;;;;23.60;15.40;;;0.50;99.90;;;-0.65;100.00;102986.00;4151558;28;20441;-76
2023/01/23 08:12:38;;;;;;;25.92;15.13;;;0.60;99.90;;;-0.56;100.00;102996.19;4135556;28;20029;-76
2023/01/23 08:14:40;;;;;;;23.02;14.10;;;0.60;99.90;;;-0.54;100.00;102989.28;4151711;28;20029;-76
2023/01/23 08:16:40;;;;;;;20.08;13.75;;;0.60;99.90;;;-0.51;100.00;102986.63;4151210;28;20504;-76
2023/01/23 08:18:41;;;;;;;20.90;14.35;;;0.70;99.90;;;-0.55;100.00;102987.56;4151379;28;20034;-76
2023/01/23 08:20:42;;;;;;;24.00;14.73;;;0.70;99.90;;;-0.59;100.00;102983.31;4135060;28;20462;-76